Terminal Aerodrome Forecast
Issued by NWS

Home | Current Version | Previous Version | Graphics & Text | Print | Product List | Glossary On
Versions: 1 2 3 4 5 6 7 8 9 10 11 12 13 14 15 16 17 18 19 20 21
365
FTUS41 KCLE 292104 AAC
TAFFDY
TAF AMD
KFDY 292104Z 2921/3018 05012G20KT P6SM BKN150 OVC200
     FM292300 07007KT P6SM OVC120
     FM301000 07010KT P6SM OVC060
     FM301500 07010G20KT 4SM -RA BR OVC015
     FM301700 08012KT 2SM -RA BR OVC010=

USA.gov is the U.S. government's official web portal to all federal, state and local government web resources and services.